Taylor, Alabama
Current Conditions -  °F | °C
As of 5:12 AM on Monday 22 Dec 2014 (Local Time) from KDHN Reporting Station
Haze Haze  
Wind Chill: 50°   Ceiling: 200
Heat Index: 50°   Visibility: 1mi
Dew Point: 50°   Wind: 8mph
Humidity: 100%   Direction: 70°ENE
Pressure: 29.99"   Gusts: NA
Location:  31.2302°N, 85.4698°W
Report Text: KDHN 221112Z AUTO 07007KT 1SM BR VV002 10/10 A2999 RMK AO2
Loading
Personal Weather Stations






























Interactive Weather Map New forecast layout! Learn more

10-Day Weather Forecast

Advertisements
Track Severe Weather on mobile